Time;durP1;ratioP1;P1;durP2;ratioP2;P2;SDS_P1;SDS_P2;PMS_P1;PMS_P2;Temp;Humidity;BMP_temperature;BMP_pressure;BME280_temperature;BME280_humidity;BME280_pressure;Samples;Min_cycle;Max_cycle;Signal;HPM_P1;HPM_P2
2021/07/17 00:02:00;;;;;;;6.25;4.30;;;;;;;;;;5021687;28;20037;-78
2021/07/17 00:04:44;;;;;;;6.10;4.45;;;;;;;;;;5024420;28;20036;-77
2021/07/17 00:07:29;;;;;;;6.55;4.45;;;;;;;;;;5024545;28;20048;-77
2021/07/17 00:10:14;;;;;;;6.20;4.28;;;;;;;;;;5024775;28;20071;-77
2021/07/17 00:12:58;;;;;;;5.60;4.18;;;;;;;;;;5021988;28;20036;-77
2021/07/17 00:15:43;;;;;;;5.40;4.10;;;;;;;;;;5024861;28;20474;-77
2021/07/17 00:18:28;;;;;;;6.43;4.10;;;;;;;;;;5010147;28;20095;-78
2021/07/17 00:21:12;;;;;;;6.20;4.10;;;;;;;;;;5025210;28;20485;-76
2021/07/17 00:23:57;;;;;;;7.10;4.00;;;;;;;;;;5022744;28;20064;-76
2021/07/17 00:26:41;;;;;;;4.55;3.92;;;;;;;;;;5009397;28;20037;-76
2021/07/17 00:29:26;;;;;;;5.65;4.20;;;;;;;;;;5009374;28;20115;-76
2021/07/17 00:32:11;;;;;;;5.95;3.83;;;;;;;;;;5024778;28;20088;-76
2021/07/17 00:34:55;;;;;;;6.70;4.10;;;;;;;;;;5023253;28;20044;-76
2021/07/17 00:37:40;;;;;;;6.78;3.70;;;;;;;;;;5024693;28;20927;-76
2021/07/17 00:40:24;;;;;;;6.63;3.95;;;;;;;;;;5025950;28;20470;-75
2021/07/17 00:43:09;;;;;;;5.82;3.95;;;;;;;;;;5023846;28;20040;-76
2021/07/17 00:45:54;;;;;;;5.63;4.13;;;;;;;;;;5024961;28;20144;-75
2021/07/17 00:48:39;;;;;;;5.60;4.07;;;;;;;;;;5024448;28;20064;-76
2021/07/17 00:51:26;;;;;;;6.10;3.95;;;;;;;;;;5023821;28;20137;-76
2021/07/17 00:54:14;;;;;;;5.60;3.90;;;;;;;;;;5009655;28;20120;-76
2021/07/17 00:57:00;;;;;;;5.10;3.92;;;;;;;;;;5023786;28;20080;-75
2021/07/17 00:59:44;;;;;;;4.47;3.60;;;;;;;;;;5021166;28;20051;-76
2021/07/17 01:02:30;;;;;;;6.25;3.80;;;;;;;;;;5022159;28;20037;-76
2021/07/17 01:05:15;;;;;;;6.03;3.83;;;;;;;;;;5009138;28;20036;-76
2021/07/17 01:08:00;;;;;;;6.35;3.85;;;;;;;;;;5023155;28;20037;-76
2021/07/17 01:10:44;;;;;;;5.43;3.90;;;;;;;;;;5022866;28;20472;-78
2021/07/17 01:13:29;;;;;;;5.35;3.88;;;;;;;;;;5023529;28;20417;-78
2021/07/17 01:16:13;;;;;;;4.95;3.70;;;;;;;;;;5022755;28;20091;-76
2021/07/17 01:18:58;;;;;;;8.13;4.10;;;;;;;;;;5022853;28;20091;-78
2021/07/17 01:21:43;;;;;;;5.78;3.90;;;;;;;;;;5022926;28;20126;-78
2021/07/17 01:24:27;;;;;;;6.55;3.67;;;;;;;;;;5021766;28;20519;-77
2021/07/17 01:27:21;;;;;;;7.07;3.90;;;;;;;;;;5024152;28;20044;-78
2021/07/17 01:30:07;;;;;;;5.45;3.65;;;;;;;;;;5024620;28;20100;-78
2021/07/17 01:32:51;;;;;;;5.45;4.07;;;;;;;;;;5008374;28;20045;-76
2021/07/17 01:35:36;;;;;;;5.53;3.95;;;;;;;;;;5022928;28;20039;-76
2021/07/17 01:38:20;;;;;;;6.10;3.50;;;;;;;;;;5022752;28;20044;-76
2021/07/17 01:41:05;;;;;;;5.55;3.75;;;;;;;;;;5022881;28;20094;-76
2021/07/17 01:43:51;;;;;;;4.35;3.30;;;;;;;;;;5022792;28;20044;-76
2021/07/17 01:46:35;;;;;;;5.22;3.70;;;;;;;;;;5010662;28;20091;-76
2021/07/17 01:49:21;;;;;;;5.00;3.65;;;;;;;;;;5024357;28;20048;-76
2021/07/17 01:52:06;;;;;;;5.05;3.85;;;;;;;;;;5026163;28;20072;-77
2021/07/17 01:54:50;;;;;;;5.10;3.70;;;;;;;;;;5027162;28;20483;-76
2021/07/17 01:57:35;;;;;;;5.03;3.60;;;;;;;;;;5026849;28;20048;-78
2021/07/17 02:00:19;;;;;;;5.32;3.53;;;;;;;;;;5028080;28;20131;-76
2021/07/17 02:03:05;;;;;;;4.68;3.75;;;;;;;;;;5013857;28;20557;-76
2021/07/17 02:05:49;;;;;;;4.78;3.72;;;;;;;;;;5029408;28;20158;-76
2021/07/17 02:08:34;;;;;;;4.40;3.80;;;;;;;;;;5029719;28;20513;-76
2021/07/17 02:11:18;;;;;;;5.47;3.45;;;;;;;;;;5014612;28;20084;-77
2021/07/17 02:14:03;;;;;;;4.00;3.40;;;;;;;;;;5029772;28;20576;-77
2021/07/17 02:16:48;;;;;;;4.90;3.35;;;;;;;;;;5028354;28;20526;-77
2021/07/17 02:19:32;;;;;;;4.60;3.53;;;;;;;;;;5014733;28;20505;-75
2021/07/17 02:22:17;;;;;;;4.80;3.20;;;;;;;;;;5014553;28;20045;-77
2021/07/17 02:25:01;;;;;;;5.65;3.60;;;;;;;;;;5027402;28;20036;-77
2021/07/17 02:27:46;;;;;;;4.32;3.40;;;;;;;;;;5028593;28;20056;-77
2021/07/17 02:30:31;;;;;;;5.97;3.45;;;;;;;;;;5028024;28;20087;-75
2021/07/17 02:33:15;;;;;;;5.18;3.50;;;;;;;;;;5013644;28;20398;-78
2021/07/17 02:36:00;;;;;;;6.18;3.45;;;;;;;;;;5023585;28;20134;-77
2021/07/17 02:38:45;;;;;;;5.13;3.47;;;;;;;;;;5027950;28;20048;-77
2021/07/17 02:41:29;;;;;;;6.07;3.50;;;;;;;;;;5029256;28;20048;-78
2021/07/17 02:44:14;;;;;;;4.18;3.30;;;;;;;;;;5029167;28;20100;-78
2021/07/17 02:46:58;;;;;;;5.60;3.60;;;;;;;;;;5028155;28;20067;-75
2021/07/17 02:49:43;;;;;;;5.25;3.33;;;;;;;;;;5029081;28;20045;-77
2021/07/17 02:52:28;;;;;;;4.55;3.30;;;;;;;;;;5014095;28;20040;-78
2021/07/17 02:55:12;;;;;;;5.70;3.47;;;;;;;;;;5027955;28;20410;-78
2021/07/17 02:57:57;;;;;;;5.47;3.40;;;;;;;;;;5013645;28;20036;-78
2021/07/17 03:00:41;;;;;;;4.65;3.22;;;;;;;;;;5029061;28;20098;-78
2021/07/17 03:03:26;;;;;;;5.55;3.50;;;;;;;;;;5027413;28;20048;-77
2021/07/17 03:06:12;;;;;;;5.38;3.53;;;;;;;;;;5007066;28;20084;-77
2021/07/17 03:08:57;;;;;;;4.25;3.22;;;;;;;;;;5019186;28;20045;-77
2021/07/17 03:11:41;;;;;;;5.45;3.63;;;;;;;;;;5028107;28;20044;-77
2021/07/17 03:14:25;;;;;;;4.97;3.22;;;;;;;;;;5028911;28;20064;-77
2021/07/17 03:17:12;;;;;;;4.43;3.30;;;;;;;;;;5028484;28;20056;-77
2021/07/17 03:19:56;;;;;;;4.90;3.75;;;;;;;;;;5026967;28;20064;-77
2021/07/17 03:22:41;;;;;;;4.93;3.65;;;;;;;;;;5028749;28;20045;-77
2021/07/17 03:25:26;;;;;;;4.00;3.17;;;;;;;;;;5038664;28;20057;-77
2021/07/17 03:28:11;;;;;;;4.53;3.40;;;;;;;;;;5019439;28;20462;-77
2021/07/17 03:30:55;;;;;;;4.13;3.35;;;;;;;;;;5027092;28;20104;-77
2021/07/17 03:33:40;;;;;;;5.22;3.38;;;;;;;;;;5027589;28;20044;-77
2021/07/17 03:36:24;;;;;;;4.35;3.40;;;;;;;;;;5026555;28;20041;-77
2021/07/17 03:39:09;;;;;;;5.80;3.67;;;;;;;;;;5026965;28;20070;-77
2021/07/17 03:41:54;;;;;;;4.30;3.33;;;;;;;;;;5026894;28;20108;-77
2021/07/17 03:44:38;;;;;;;5.30;3.58;;;;;;;;;;5028009;28;20099;-77
2021/07/17 03:47:23;;;;;;;5.75;3.50;;;;;;;;;;5027199;28;20044;-77
2021/07/17 03:50:08;;;;;;;4.78;3.30;;;;;;;;;;5028081;28;20052;-77
2021/07/17 03:52:53;;;;;;;4.82;3.60;;;;;;;;;;5027502;28;20087;-75
2021/07/17 03:55:37;;;;;;;4.55;3.35;;;;;;;;;;5028367;28;20052;-77
2021/07/17 03:58:22;;;;;;;4.75;3.35;;;;;;;;;;5027300;28;20041;-77
2021/07/17 04:01:07;;;;;;;4.57;3.58;;;;;;;;;;5027867;28;20142;-77
2021/07/17 04:03:51;;;;;;;6.13;3.90;;;;;;;;;;5026128;28;20095;-77
2021/07/17 04:06:36;;;;;;;4.82;3.70;;;;;;;;;;5023631;28;20079;-77
2021/07/17 04:09:20;;;;;;;5.15;3.60;;;;;;;;;;5025597;28;20119;-77
2021/07/17 04:12:05;;;;;;;5.47;3.70;;;;;;;;;;5027730;28;20052;-77
2021/07/17 04:14:50;;;;;;;4.72;3.65;;;;;;;;;;5023945;28;20052;-77
2021/07/17 04:17:34;;;;;;;6.13;3.88;;;;;;;;;;5011952;28;20219;-77
2021/07/17 04:20:19;;;;;;;4.78;3.75;;;;;;;;;;5027186;28;20072;-77
2021/07/17 04:23:04;;;;;;;6.30;3.45;;;;;;;;;;5027584;28;20099;-77
2021/07/17 04:25:49;;;;;;;4.45;3.40;;;;;;;;;;5025870;28;20059;-77
2021/07/17 04:28:33;;;;;;;4.95;3.47;;;;;;;;;;5026384;28;20037;-77
2021/07/17 04:31:18;;;;;;;4.70;3.50;;;;;;;;;;5012333;28;20032;-77
2021/07/17 04:34:02;;;;;;;4.45;3.35;;;;;;;;;;5026027;28;20402;-77
2021/07/17 04:36:47;;;;;;;5.43;3.60;;;;;;;;;;5027269;28;20120;-77
2021/07/17 04:39:31;;;;;;;4.18;3.60;;;;;;;;;;5026173;28;20091;-77
2021/07/17 04:42:16;;;;;;;4.47;3.40;;;;;;;;;;5026825;28;21046;-77
2021/07/17 04:45:01;;;;;;;7.07;3.83;;;;;;;;;;5026105;28;20219;-77
2021/07/17 04:47:45;;;;;;;4.82;3.58;;;;;;;;;;5026634;28;20032;-77
2021/07/17 04:50:37;;;;;;;5.53;3.58;;;;;;;;;;5023214;28;20548;-77
2021/07/17 04:53:22;;;;;;;4.53;3.50;;;;;;;;;;5009838;28;20040;-77
2021/07/17 04:56:07;;;;;;;5.60;3.38;;;;;;;;;;5014077;28;20398;-77
2021/07/17 04:58:52;;;;;;;4.70;3.45;;;;;;;;;;5026081;28;20778;-77
2021/07/17 05:01:36;;;;;;;5.47;3.70;;;;;;;;;;5008998;28;20040;-77
2021/07/17 05:04:21;;;;;;;4.68;3.53;;;;;;;;;;5024471;28;20092;-77
2021/07/17 05:07:05;;;;;;;5.88;3.67;;;;;;;;;;5024980;28;20040;-77
2021/07/17 05:09:50;;;;;;;5.20;3.50;;;;;;;;;;5023228;28;20134;-77
2021/07/17 05:12:34;;;;;;;5.43;3.35;;;;;;;;;;5009549;28;20044;-77
2021/07/17 05:15:19;;;;;;;4.22;3.35;;;;;;;;;;5024412;28;20088;-77
2021/07/17 05:18:05;;;;;;;5.95;3.58;;;;;;;;;;5022747;28;20087;-77
2021/07/17 05:20:49;;;;;;;6.22;3.78;;;;;;;;;;5024128;28;20078;-77
2021/07/17 05:23:34;;;;;;;4.82;3.40;;;;;;;;;;5009330;28;20044;-77
2021/07/17 05:26:18;;;;;;;6.07;3.88;;;;;;;;;;5023034;28;20052;-77
2021/07/17 05:29:03;;;;;;;5.63;3.33;;;;;;;;;;5024253;28;20083;-77
2021/07/17 05:31:47;;;;;;;5.25;3.92;;;;;;;;;;5026718;28;20103;-77
2021/07/17 05:34:32;;;;;;;4.80;3.53;;;;;;;;;;5026170;28;20488;-77
2021/07/17 05:37:16;;;;;;;4.72;3.65;;;;;;;;;;5027273;28;20536;-77
2021/07/17 05:40:00;;;;;;;6.57;3.83;;;;;;;;;;5025648;28;20152;-77
2021/07/17 05:42:45;;;;;;;5.20;3.35;;;;;;;;;;5027137;28;20413;-77
2021/07/17 05:45:30;;;;;;;5.00;3.47;;;;;;;;;;5027585;28;20036;-77
2021/07/17 05:48:14;;;;;;;4.68;3.53;;;;;;;;;;5008440;28;20049;-77
2021/07/17 05:50:59;;;;;;;5.63;3.88;;;;;;;;;;5012636;28;20585;-77
2021/07/17 05:53:43;;;;;;;5.10;3.80;;;;;;;;;;5013409;28;20049;-77
2021/07/17 05:56:28;;;;;;;4.28;3.53;;;;;;;;;;5026685;28;20075;-77
2021/07/17 05:59:12;;;;;;;4.80;3.70;;;;;;;;;;5012273;28;20048;-77
2021/07/17 06:01:57;;;;;;;5.28;3.63;;;;;;;;;;5026596;28;20037;-77
2021/07/17 06:04:41;;;;;;;4.57;3.50;;;;;;;;;;5027706;28;20048;-77
2021/07/17 06:07:26;;;;;;;5.28;3.83;;;;;;;;;;5027738;28;20043;-77
2021/07/17 06:10:11;;;;;;;6.38;3.40;;;;;;;;;;5016735;28;20088;-77
2021/07/17 06:12:56;;;;;;;5.18;3.42;;;;;;;;;;5027029;28;20689;-77
2021/07/17 06:15:40;;;;;;;3.85;3.10;;;;;;;;;;5027542;28;20048;-77
2021/07/17 06:18:25;;;;;;;5.22;3.65;;;;;;;;;;5027278;28;20072;-77
2021/07/17 06:21:09;;;;;;;5.15;3.80;;;;;;;;;;5025851;28;20091;-77
2021/07/17 06:23:54;;;;;;;4.97;3.75;;;;;;;;;;5025511;28;20398;-77
2021/07/17 06:26:38;;;;;;;5.25;3.70;;;;;;;;;;5012058;28;20118;-77
2021/07/17 06:29:23;;;;;;;4.25;3.60;;;;;;;;;;5027437;28;20082;-77
2021/07/17 06:32:07;;;;;;;4.70;3.65;;;;;;;;;;5012264;28;20156;-77
2021/07/17 06:34:52;;;;;;;4.95;3.63;;;;;;;;;;5030282;28;20501;-77
2021/07/17 06:37:41;;;;;;;4.55;3.72;;;;;;;;;;5011992;28;20044;-77
2021/07/17 06:40:25;;;;;;;5.20;3.33;;;;;;;;;;5011958;28;20114;-77
2021/07/17 06:43:10;;;;;;;4.75;3.38;;;;;;;;;;5027739;28;20041;-77
2021/07/17 06:45:54;;;;;;;3.55;3.10;;;;;;;;;;5025797;28;20762;-77
2021/07/17 06:48:39;;;;;;;3.92;3.25;;;;;;;;;;5025553;28;20136;-77
2021/07/17 06:51:24;;;;;;;4.20;3.30;;;;;;;;;;5025887;28;20043;-77
2021/07/17 06:54:08;;;;;;;4.50;3.20;;;;;;;;;;5026908;28;20080;-77
2021/07/17 06:56:53;;;;;;;4.50;3.55;;;;;;;;;;5036321;28;20094;-77
2021/07/17 06:59:37;;;;;;;4.15;3.17;;;;;;;;;;5025495;28;20102;-77
2021/07/17 07:02:22;;;;;;;4.57;3.22;;;;;;;;;;5011252;28;20040;-77
2021/07/17 07:05:07;;;;;;;3.53;3.15;;;;;;;;;;5026451;28;20045;-77
2021/07/17 07:07:51;;;;;;;4.35;3.10;;;;;;;;;;5025462;28;20060;-77
2021/07/17 07:10:36;;;;;;;3.72;3.25;;;;;;;;;;5024854;28;20056;-77
2021/07/17 07:13:21;;;;;;;4.18;3.10;;;;;;;;;;5026730;28;20091;-76
2021/07/17 07:16:06;;;;;;;5.38;3.28;;;;;;;;;;5026141;28;20497;-78
2021/07/17 07:18:50;;;;;;;5.68;3.38;;;;;;;;;;5024896;28;20743;-77
2021/07/17 07:21:35;;;;;;;4.30;3.20;;;;;;;;;;5025208;28;20049;-77
2021/07/17 07:24:20;;;;;;;4.18;3.42;;;;;;;;;;5024957;28;20480;-77
2021/07/17 07:27:04;;;;;;;3.28;2.72;;;;;;;;;;5024898;28;20044;-77
2021/07/17 07:29:49;;;;;;;3.63;2.88;;;;;;;;;;5026001;28;20176;-77
2021/07/17 07:32:34;;;;;;;4.32;3.10;;;;;;;;;;5025963;28;20533;-77
2021/07/17 07:35:19;;;;;;;3.72;3.13;;;;;;;;;;5023435;28;20094;-77
2021/07/17 07:38:04;;;;;;;3.65;2.95;;;;;;;;;;5024521;28;20599;-76
2021/07/17 07:40:48;;;;;;;5.10;2.88;;;;;;;;;;5025876;28;20878;-77
2021/07/17 07:43:33;;;;;;;5.60;3.33;;;;;;;;;;5026081;28;20095;-77
2021/07/17 07:46:18;;;;;;;4.38;3.13;;;;;;;;;;5024525;28;20481;-77
2021/07/17 07:49:03;;;;;;;3.75;3.17;;;;;;;;;;5010470;28;20080;-77
2021/07/17 07:51:48;;;;;;;5.78;3.28;;;;;;;;;;5024231;28;20574;-77
2021/07/17 07:54:33;;;;;;;3.50;2.90;;;;;;;;;;5024369;28;20048;-77
2021/07/17 07:57:17;;;;;;;5.18;3.20;;;;;;;;;;5037940;28;20126;-76
2021/07/17 08:00:02;;;;;;;5.35;2.83;;;;;;;;;;5016301;28;20037;-77
2021/07/17 08:02:46;;;;;;;4.22;3.08;;;;;;;;;;5024267;28;20048;-77
2021/07/17 08:05:31;;;;;;;3.83;2.53;;;;;;;;;;5025448;28;20168;-77
2021/07/17 08:08:15;;;;;;;4.28;3.03;;;;;;;;;;5024135;28;20103;-77
2021/07/17 08:11:00;;;;;;;3.20;2.80;;;;;;;;;;5024817;28;20049;-76
2021/07/17 08:13:45;;;;;;;4.22;3.08;;;;;;;;;;5024697;28;20163;-77
2021/07/17 08:16:30;;;;;;;4.10;2.95;;;;;;;;;;5023853;28;20095;-77
2021/07/17 08:19:16;;;;;;;4.43;3.05;;;;;;;;;;5023709;28;20056;-77
2021/07/17 08:22:01;;;;;;;3.75;2.83;;;;;;;;;;5010444;28;20121;-77
2021/07/17 08:24:45;;;;;;;3.95;2.63;;;;;;;;;;5024155;28;20056;-77
2021/07/17 08:27:30;;;;;;;5.03;2.97;;;;;;;;;;5023611;28;20128;-77
2021/07/17 08:30:14;;;;;;;4.03;2.80;;;;;;;;;;5024054;28;20107;-77
2021/07/17 08:32:59;;;;;;;3.88;2.88;;;;;;;;;;5024808;28;20405;-77
2021/07/17 08:35:44;;;;;;;3.00;2.50;;;;;;;;;;5023356;28;20143;-77
2021/07/17 08:38:28;;;;;;;3.92;3.00;;;;;;;;;;5024843;28;20052;-77
2021/07/17 08:41:13;;;;;;;4.72;3.08;;;;;;;;;;5023741;28;20061;-77
2021/07/17 08:43:58;;;;;;;3.53;2.90;;;;;;;;;;5010127;28;20040;-78
2021/07/17 08:46:42;;;;;;;4.07;2.78;;;;;;;;;;5024586;28;20052;-77
2021/07/17 08:49:27;;;;;;;3.63;2.70;;;;;;;;;;5023430;28;20076;-77
2021/07/17 08:52:12;;;;;;;2.65;2.33;;;;;;;;;;5023692;28;20141;-77
2021/07/17 08:55:02;;;;;;;4.32;2.95;;;;;;;;;;5009858;28;20049;-77
2021/07/17 08:57:47;;;;;;;3.15;2.85;;;;;;;;;;5022857;28;20080;-77
2021/07/17 09:00:32;;;;;;;3.50;2.80;;;;;;;;;;5023167;28;20767;-77
2021/07/17 09:03:18;;;;;;;3.30;2.67;;;;;;;;;;5023338;28;20508;-77
2021/07/17 09:06:02;;;;;;;3.75;2.80;;;;;;;;;;5024403;28;20414;-77
2021/07/17 09:08:51;;;;;;;3.17;2.80;;;;;;;;;;5023899;28;20167;-77
2021/07/17 09:11:40;;;;;;;3.58;2.55;;;;;;;;;;5020008;28;20044;-77
2021/07/17 09:14:35;;;;;;;3.25;2.45;;;;;;;;;;5009660;28;20141;-77
2021/07/17 09:17:26;;;;;;;3.88;2.70;;;;;;;;;;5022609;28;20728;-77
2021/07/17 09:20:11;;;;;;;2.97;2.50;;;;;;;;;;5008801;28;20041;-77
2021/07/17 09:23:02;;;;;;;3.78;2.83;;;;;;;;;;5020243;28;20055;-77
2021/07/17 09:25:47;;;;;;;3.25;2.60;;;;;;;;;;5005203;28;20132;-77
2021/07/17 09:28:32;;;;;;;3.75;2.85;;;;;;;;;;5018895;28;20044;-77
2021/07/17 09:31:17;;;;;;;2.92;2.63;;;;;;;;;;5022770;28;20080;-78
2021/07/17 09:34:11;;;;;;;3.72;2.88;;;;;;;;;;5021421;28;20036;-77
2021/07/17 09:37:01;;;;;;;3.53;2.50;;;;;;;;;;5017333;28;20661;-77
2021/07/17 09:39:46;;;;;;;5.13;2.80;;;;;;;;;;5008895;28;20107;-77
2021/07/17 09:42:31;;;;;;;4.68;2.75;;;;;;;;;;5010719;28;20785;-78
2021/07/17 09:45:36;;;;;;;3.78;2.88;;;;;;;;;;5018100;28;20121;-77
2021/07/17 09:48:28;;;;;;;4.00;2.80;;;;;;;;;;5019116;28;20088;-77
2021/07/17 09:51:13;;;;;;;3.00;2.50;;;;;;;;;;5003349;28;20044;-78
2021/07/17 09:54:00;;;;;;;3.15;2.50;;;;;;;;;;4999391;28;20107;-78
2021/07/17 09:56:45;;;;;;;5.03;2.78;;;;;;;;;;5019888;28;20862;-78
2021/07/17 09:59:29;;;;;;;2.97;2.50;;;;;;;;;;5019500;28;20095;-78
2021/07/17 10:02:28;;;;;;;3.28;2.60;;;;;;;;;;5019366;28;20048;-76
2021/07/17 10:05:16;;;;;;;4.47;2.80;;;;;;;;;;5020519;28;20126;-77
2021/07/17 10:08:13;;;;;;;3.95;2.83;;;;;;;;;;5008005;28;20087;-78
2021/07/17 10:11:01;;;;;;;3.67;2.60;;;;;;;;;;5021443;28;20048;-78
2021/07/17 10:13:45;;;;;;;3.33;2.60;;;;;;;;;;5021679;28;20036;-78
2021/07/17 10:16:32;;;;;;;3.67;2.70;;;;;;;;;;5009445;28;20048;-77
2021/07/17 10:19:16;;;;;;;5.13;3.05;;;;;;;;;;5019267;28;20099;-77
2021/07/17 10:22:01;;;;;;;3.67;2.55;;;;;;;;;;4998942;28;20039;-78
2021/07/17 10:24:46;;;;;;;4.70;2.75;;;;;;;;;;5009679;28;20044;-77
2021/07/17 10:27:31;;;;;;;2.83;2.42;;;;;;;;;;5009576;28;20410;-77
2021/07/17 10:30:16;;;;;;;3.60;2.60;;;;;;;;;;5019735;28;20076;-77
2021/07/17 10:33:01;;;;;;;3.28;2.72;;;;;;;;;;5025319;28;20043;-78
2021/07/17 10:35:46;;;;;;;3.15;2.60;;;;;;;;;;5005329;28;20064;-78
2021/07/17 10:38:30;;;;;;;3.90;3.00;;;;;;;;;;5008919;28;20552;-76
2021/07/17 10:41:15;;;;;;;4.07;2.70;;;;;;;;;;5010740;28;20095;-78
2021/07/17 10:44:00;;;;;;;3.80;2.60;;;;;;;;;;5026204;28;20103;-78
2021/07/17 10:46:45;;;;;;;3.40;2.70;;;;;;;;;;5009418;28;20516;-76
2021/07/17 10:49:34;;;;;;;3.97;2.90;;;;;;;;;;5025571;28;20052;-76
2021/07/17 10:52:38;;;;;;;3.25;2.67;;;;;;;;;;5012017;28;20036;-78
2021/07/17 10:55:23;;;;;;;3.88;2.55;;;;;;;;;;5012327;28;20044;-78
2021/07/17 10:58:11;;;;;;;3.65;2.50;;;;;;;;;;5024240;28;20048;-78
2021/07/17 11:00:56;;;;;;;3.05;2.50;;;;;;;;;;5023789;28;20111;-78
2021/07/17 11:03:40;;;;;;;3.67;2.50;;;;;;;;;;5026880;28;20048;-76
2021/07/17 11:06:33;;;;;;;3.40;2.78;;;;;;;;;;5025740;28;20043;-78
2021/07/17 11:09:27;;;;;;;3.85;2.80;;;;;;;;;;5011313;28;20529;-77
2021/07/17 11:12:18;;;;;;;4.03;2.78;;;;;;;;;;5022769;28;20045;-78
2021/07/17 11:15:06;;;;;;;4.10;2.70;;;;;;;;;;5018824;28;20117;-75
2021/07/17 11:17:53;;;;;;;4.25;2.53;;;;;;;;;;5026261;28;20558;-76
2021/07/17 11:20:39;;;;;;;2.85;2.55;;;;;;;;;;5023751;28;20114;-76
2021/07/17 11:23:23;;;;;;;3.30;2.92;;;;;;;;;;5020029;28;20122;-76
2021/07/17 11:26:10;;;;;;;3.42;2.60;;;;;;;;;;5005117;28;20064;-76
2021/07/17 11:29:00;;;;;;;3.22;2.75;;;;;;;;;;4992826;28;20044;-76
2021/07/17 11:31:45;;;;;;;4.10;2.88;;;;;;;;;;5006829;28;20418;-76
2021/07/17 11:34:32;;;;;;;3.08;2.47;;;;;;;;;;5017218;28;20079;-76
2021/07/17 11:37:20;;;;;;;5.20;2.90;;;;;;;;;;5004832;28;20836;-76
2021/07/17 11:40:05;;;;;;;4.15;2.88;;;;;;;;;;5012108;28;20048;-76
2021/07/17 11:42:50;;;;;;;4.18;2.67;;;;;;;;;;5023534;28;20140;-76
2021/07/17 11:45:35;;;;;;;3.40;2.63;;;;;;;;;;5036133;28;20736;-76
2021/07/17 11:48:19;;;;;;;2.97;2.42;;;;;;;;;;5023232;28;20051;-76
2021/07/17 11:51:04;;;;;;;3.83;2.70;;;;;;;;;;5025804;28;20170;-76
2021/07/17 11:53:48;;;;;;;4.15;2.78;;;;;;;;;;5019727;28;20037;-78
2021/07/17 11:56:33;;;;;;;3.83;2.72;;;;;;;;;;5022440;28;20533;-76
2021/07/17 11:59:17;;;;;;;4.57;3.10;;;;;;;;;;5020973;28;20449;-76
2021/07/17 12:02:08;;;;;;;3.33;2.72;;;;;;;;;;5024251;28;20044;-77
2021/07/17 12:04:53;;;;;;;;;;;;;;;;;;5024568;28;20550;-76
2021/07/17 12:07:39;;;;;;;5.07;2.97;;;;;;;;;;5022660;28;19920;-76
2021/07/17 12:10:24;;;;;;;4.45;3.25;;;;;;;;;;5022143;28;20866;-78
2021/07/17 12:13:09;;;;;;;4.68;3.25;;;;;;;;;;5023996;28;20543;-76
2021/07/17 12:15:54;;;;;;;4.88;2.75;;;;;;;;;;5024256;28;20039;-78
2021/07/17 12:18:39;;;;;;;4.05;3.08;;;;;;;;;;5024768;28;20041;-78
2021/07/17 12:21:24;;;;;;;3.85;3.20;;;;;;;;;;5023291;28;20470;-78
2021/07/17 12:24:08;;;;;;;5.18;2.72;;;;;;;;;;5022983;28;20080;-78
2021/07/17 12:27:02;;;;;;;4.00;2.72;;;;;;;;;;5024389;28;20595;-77
2021/07/17 12:29:50;;;;;;;3.28;2.97;;;;;;;;;;5024862;28;20057;-78
2021/07/17 12:32:35;;;;;;;5.00;2.83;;;;;;;;;;5022343;28;20048;-77
2021/07/17 12:35:21;;;;;;;5.05;3.10;;;;;;;;;;5021737;28;20040;-77
2021/07/17 12:38:22;;;;;;;3.90;2.78;;;;;;;;;;5008738;28;20044;-78
2021/07/17 12:41:19;;;;;;;3.88;3.10;;;;;;;;;;5023075;28;20292;-78
2021/07/17 12:44:05;;;;;;;3.53;2.70;;;;;;;;;;5023682;28;20509;-78
2021/07/17 12:46:52;;;;;;;3.60;2.83;;;;;;;;;;5023583;28;20040;-78
2021/07/17 12:49:37;;;;;;;4.68;3.10;;;;;;;;;;5023010;28;20048;-78
2021/07/17 12:52:21;;;;;;;3.50;2.97;;;;;;;;;;5020814;28;20676;-78
2021/07/17 12:55:06;;;;;;;3.60;2.90;;;;;;;;;;5021433;28;20128;-78
2021/07/17 12:57:51;;;;;;;3.30;2.97;;;;;;;;;;5007553;28;20064;-78
2021/07/17 13:00:35;;;;;;;4.90;3.17;;;;;;;;;;5019692;28;20254;-78
2021/07/17 13:03:20;;;;;;;5.00;3.10;;;;;;;;;;5022094;28;20101;-78
2021/07/17 13:06:11;;;;;;;4.28;3.03;;;;;;;;;;5003348;28;20103;-78
2021/07/17 13:09:01;;;;;;;3.67;2.70;;;;;;;;;;5012589;28;20040;-78
2021/07/17 13:11:50;;;;;;;4.82;2.85;;;;;;;;;;5018364;28;20473;-77
2021/07/17 13:14:35;;;;;;;3.72;3.20;;;;;;;;;;4993891;28;20040;-78
2021/07/17 13:17:20;;;;;;;3.75;3.08;;;;;;;;;;5021213;28;20506;-77
2021/07/17 13:20:05;;;;;;;4.22;3.13;;;;;;;;;;5008090;28;20397;-78
2021/07/17 13:22:50;;;;;;;4.60;3.22;;;;;;;;;;5015616;28;20040;-78
2021/07/17 13:25:38;;;;;;;3.95;3.00;;;;;;;;;;5021967;28;20036;-78
2021/07/17 13:28:28;;;;;;;3.80;3.10;;;;;;;;;;5022131;28;20048;-78
2021/07/17 13:31:17;;;;;;;3.97;3.15;;;;;;;;;;5023984;28;20053;-78
2021/07/17 13:34:14;;;;;;;4.00;3.30;;;;;;;;;;5007438;28;20099;-77
2021/07/17 13:37:03;;;;;;;4.00;3.05;;;;;;;;;;5004724;28;20047;-77
2021/07/17 13:39:52;;;;;;;4.85;3.33;;;;;;;;;;4989951;28;20859;-78
2021/07/17 13:42:37;;;;;;;4.22;3.20;;;;;;;;;;5013287;28;20036;-78
2021/07/17 13:45:25;;;;;;;3.90;3.25;;;;;;;;;;5018896;28;20121;-77
2021/07/17 13:48:10;;;;;;;3.75;3.13;;;;;;;;;;5005269;28;20048;-79
2021/07/17 13:51:24;;;;;;;4.63;3.25;;;;;;;;;;5025326;28;20501;-78
2021/07/17 13:54:09;;;;;;;4.32;3.20;;;;;;;;;;5016242;28;20509;-78
2021/07/17 13:56:54;;;;;;;4.40;3.35;;;;;;;;;;5026513;28;20727;-79
2021/07/17 13:59:38;;;;;;;5.07;3.55;;;;;;;;;;5024385;28;20048;-78
2021/07/17 14:02:23;;;;;;;4.28;3.40;;;;;;;;;;5026013;28;20080;-78
2021/07/17 14:05:16;;;;;;;6.30;3.47;;;;;;;;;;5025829;28;21954;-78
2021/07/17 14:08:01;;;;;;;4.25;3.30;;;;;;;;;;5021393;28;20084;-78
2021/07/17 14:10:46;;;;;;;5.05;3.60;;;;;;;;;;5027351;28;20140;-78
2021/07/17 14:13:31;;;;;;;4.68;3.45;;;;;;;;;;5026054;28;20071;-79
2021/07/17 14:16:16;;;;;;;4.50;3.50;;;;;;;;;;5024327;28;20106;-78
2021/07/17 14:19:01;;;;;;;4.18;3.47;;;;;;;;;;5026143;28;20505;-78
2021/07/17 14:21:46;;;;;;;4.13;3.40;;;;;;;;;;5024975;28;20040;-78
2021/07/17 14:24:30;;;;;;;5.05;3.55;;;;;;;;;;5025583;28;20045;-78
2021/07/17 14:27:15;;;;;;;4.90;3.50;;;;;;;;;;5026519;28;20500;-78
2021/07/17 14:30:00;;;;;;;4.07;3.60;;;;;;;;;;5025736;28;20047;-78
2021/07/17 14:32:45;;;;;;;4.70;3.83;;;;;;;;;;5026276;28;20044;-78
2021/07/17 14:35:30;;;;;;;4.57;3.65;;;;;;;;;;5026203;28;20090;-78
2021/07/17 14:38:14;;;;;;;4.45;3.55;;;;;;;;;;5024415;28;20041;-78
2021/07/17 14:40:59;;;;;;;5.30;3.80;;;;;;;;;;5025971;28;20051;-78
2021/07/17 14:43:44;;;;;;;4.55;3.53;;;;;;;;;;5027061;28;20040;-78
2021/07/17 14:46:28;;;;;;;5.20;3.60;;;;;;;;;;5024517;28;20040;-78
2021/07/17 14:49:13;;;;;;;5.22;4.03;;;;;;;;;;5024759;28;20172;-78
2021/07/17 14:51:57;;;;;;;4.93;3.83;;;;;;;;;;5006301;28;20103;-78
2021/07/17 14:54:42;;;;;;;6.00;3.75;;;;;;;;;;5019485;28;20072;-78
2021/07/17 14:57:27;;;;;;;4.90;3.80;;;;;;;;;;5018976;28;20469;-78
2021/07/17 15:00:13;;;;;;;4.43;3.70;;;;;;;;;;5019412;28;20076;-77
2021/07/17 15:02:57;;;;;;;5.00;3.45;;;;;;;;;;5021107;28;20045;-78
2021/07/17 15:05:42;;;;;;;4.38;3.70;;;;;;;;;;5026055;28;20280;-78
2021/07/17 15:08:26;;;;;;;5.03;3.80;;;;;;;;;;5025146;28;20432;-79
2021/07/17 15:11:11;;;;;;;4.32;3.58;;;;;;;;;;5014579;28;20056;-78
2021/07/17 15:13:56;;;;;;;3.75;3.35;;;;;;;;;;5011479;28;20110;-79
2021/07/17 15:16:41;;;;;;;4.65;3.35;;;;;;;;;;5009024;28;20040;-79
2021/07/17 15:19:25;;;;;;;4.50;4.10;;;;;;;;;;5020020;28;20056;-79
2021/07/17 15:22:10;;;;;;;3.90;3.35;;;;;;;;;;5018141;28;20048;-78
2021/07/17 15:24:55;;;;;;;4.90;3.83;;;;;;;;;;5023817;28;20144;-78
2021/07/17 15:27:39;;;;;;;4.25;3.30;;;;;;;;;;5025957;28;20446;-78
2021/07/17 15:30:24;;;;;;;4.50;3.58;;;;;;;;;;5024755;28;20099;-78
2021/07/17 15:33:08;;;;;;;4.70;3.53;;;;;;;;;;5014878;28;20205;-77
2021/07/17 15:35:53;;;;;;;4.97;3.75;;;;;;;;;;5005674;28;20680;-78
2021/07/17 15:38:38;;;;;;;5.43;3.45;;;;;;;;;;5009549;28;20109;-77
2021/07/17 15:41:22;;;;;;;6.63;3.40;;;;;;;;;;5018060;28;20528;-78
2021/07/17 15:44:07;;;;;;;6.22;3.80;;;;;;;;;;5025456;28;20040;-78
2021/07/17 15:46:52;;;;;;;4.70;3.78;;;;;;;;;;5024075;28;20547;-78
2021/07/17 15:49:36;;;;;;;5.80;3.85;;;;;;;;;;5009959;28;20095;-78
2021/07/17 15:52:21;;;;;;;5.45;3.55;;;;;;;;;;5023375;28;20068;-78
2021/07/17 15:55:06;;;;;;;5.57;4.05;;;;;;;;;;5020033;28;20099;-78
2021/07/17 15:57:50;;;;;;;6.57;4.10;;;;;;;;;;5021898;28;20044;-79
2021/07/17 16:00:35;;;;;;;6.50;4.28;;;;;;;;;;5021445;28;20623;-79
2021/07/17 16:03:19;;;;;;;5.43;4.15;;;;;;;;;;5019584;28;20087;-79
2021/07/17 16:06:04;;;;;;;5.28;3.92;;;;;;;;;;5009741;28;20064;-78
2021/07/17 16:08:48;;;;;;;5.72;4.07;;;;;;;;;;5022151;28;20044;-78
2021/07/17 16:11:33;;;;;;;6.43;4.43;;;;;;;;;;5023593;28;20087;-79
2021/07/17 16:14:18;;;;;;;6.47;4.50;;;;;;;;;;5023328;28;20084;-78
2021/07/17 16:17:03;;;;;;;6.95;4.63;;;;;;;;;;5023570;28;20047;-78
2021/07/17 16:19:47;;;;;;;6.07;4.20;;;;;;;;;;5024855;28;20048;-78
2021/07/17 16:22:32;;;;;;;6.10;4.28;;;;;;;;;;5022822;28;20044;-79
2021/07/17 16:25:16;;;;;;;6.95;4.13;;;;;;;;;;5023869;28;20056;-78
2021/07/17 16:28:01;;;;;;;5.88;4.47;;;;;;;;;;5004458;28;20064;-78
2021/07/17 16:30:45;;;;;;;6.28;4.75;;;;;;;;;;5012778;28;20098;-79
2021/07/17 16:33:30;;;;;;;6.70;4.53;;;;;;;;;;5022758;28;20107;-79